KHHR

Jack Northrop Field / Hawthorne Municipal Airport

Hawthorne, California, USA
METAR KHHR 210653Z AUTO 29004KT 10SM BKN028 OVC034 16/12 A2989 RMK AO2 SLP123 T01560122
Observed Flight Rules
May-21 @ 06:53 UTC (13 minutes ago) Marginal Visual Flight Rules
Wind Visibility Clouds
290° at 4 knots 10 miles
  • Broken at 2,800' AGL
  • Overcast at 3,400' AGL
Temperatures Readings
Current 16°C / 61°F
Dewpoint 12°C / 54°F
Humidity 77%
Altimeter 29.89" Hg
Pressure 1012.3 hPa
Elevation 18
METAR KHHR 210653Z AUTO 29004KT 10SM BKN028 OVC034 16/12 A2989 RMK AO2 SLP123 T01560122
Observed Flight Rules
May-21 @ 06:53 UTC
(13 minutes ago)
MVFR
Wind Visibility
290° at 4 knots 10 miles
Clouds
  • Broken at 2,800' AGL
  • Overcast at 3,400' AGL
Temperature Dewpoint
16°C / 61°F 12°C / 54°F
Humidity Altimeter Pressure
77% 29.89" Hg 1012.3 hPa